Time;durP1;ratioP1;P1;durP2;ratioP2;P2;SDS_P1;SDS_P2;PMS_P1;PMS_P2;Temp;Humidity;BMP_temperature;BMP_pressure;BME280_temperature;BME280_humidity;BME280_pressure;Samples;Min_cycle;Max_cycle;Signal;HPM_P1;HPM_P2
2023/08/10 00:04:19;;;;;;;4.50;4.30;;;18.10;99.90;;;;;;10413279;28;20614;-83
2023/08/10 00:09:22;;;;;;;4.60;4.20;;;18.00;99.90;;;;;;10410635;28;20254;-82
2023/08/10 00:14:24;;;;;;;4.20;4.00;;;18.00;99.90;;;;;;10406367;28;20207;-83
2023/08/10 00:19:26;;;;;;;3.97;3.57;;;18.00;99.90;;;;;;10381503;28;20211;-80
2023/08/10 00:24:30;;;;;;;3.80;3.60;;;17.90;99.90;;;;;;10407568;28;20258;-83
2023/08/10 00:29:32;;;;;;;3.80;3.60;;;17.80;99.90;;;;;;10389999;28;20227;-82
2023/08/10 00:34:34;;;;;;;4.10;3.80;;;17.70;99.90;;;;;;10408983;28;20226;-82
2023/08/10 00:39:37;;;;;;;4.40;4.00;;;17.60;99.90;;;;;;10412050;28;20237;-81
2023/08/10 00:44:40;;;;;;;3.70;3.50;;;17.60;99.90;;;;;;10416862;28;20202;-81
2023/08/10 00:49:42;;;;;;;5.03;4.00;;;17.50;99.90;;;;;;10424647;28;20587;-81
2023/08/10 00:54:46;;;;;;;4.30;3.90;;;17.40;99.90;;;;;;10397398;28;20194;-82
2023/08/10 00:59:49;;;;;;;4.03;3.73;;;17.30;99.90;;;;;;10443892;28;20206;-82
2023/08/10 01:04:51;;;;;;;3.60;3.40;;;17.20;99.90;;;;;;10413282;28;20203;-83
2023/08/10 01:10:01;;;;;;;3.53;3.33;;;17.10;99.90;;;;;;10399145;28;20223;-83
2023/08/10 01:15:11;;;;;;;4.20;3.57;;;17.00;99.90;;;;;;10363797;28;20301;-83
2023/08/10 01:20:17;;;;;;;3.70;3.50;;;16.90;99.90;;;;;;10406621;28;20225;-82
2023/08/10 01:25:22;;;;;;;4.20;4.00;;;16.90;99.90;;;;;;10422189;28;20230;-82
2023/08/10 01:30:24;;;;;;;4.20;3.90;;;16.80;99.90;;;;;;10433783;28;20223;-81
2023/08/10 01:35:26;;;;;;;3.93;3.70;;;16.70;99.90;;;;;;10413748;28;20258;-82
2023/08/10 01:40:30;;;;;;;4.67;3.57;;;16.60;99.90;;;;;;10397320;28;20225;-81
2023/08/10 01:45:32;;;;;;;3.93;3.73;;;16.50;99.90;;;;;;10385912;28;21014;-82
2023/08/10 01:50:37;;;;;;;4.27;3.97;;;16.50;99.90;;;;;;10457182;28;20225;-82
2023/08/10 01:55:41;;;;;;;3.87;3.67;;;16.50;99.90;;;;;;10414755;28;20713;-82
2023/08/10 02:00:44;;;;;;;4.90;4.53;;;16.40;99.90;;;;;;10378679;28;20222;-81
2023/08/10 02:05:48;;;;;;;3.90;3.70;;;16.40;99.90;;;;;;10400104;28;20226;-82
2023/08/10 02:10:53;;;;;;;4.53;4.33;;;16.30;99.90;;;;;;10396327;28;20277;-82
2023/08/10 02:15:56;;;;;;;4.60;4.30;;;16.30;99.90;;;;;;10414376;28;20702;-82
2023/08/10 02:20:58;;;;;;;4.53;4.23;;;16.30;99.90;;;;;;10416040;28;20214;-81
2023/08/10 02:26:01;;;;;;;4.30;4.00;;;16.20;99.90;;;;;;10407873;28;20237;-82
2023/08/10 02:31:04;;;;;;;3.97;3.77;;;16.20;99.90;;;;;;10399566;28;20266;-81
2023/08/10 02:36:07;;;;;;;4.07;3.87;;;16.20;99.90;;;;;;10413588;28;20249;-82
2023/08/10 02:41:11;;;;;;;4.53;4.33;;;16.20;99.90;;;;;;10405388;28;20196;-82
2023/08/10 02:46:13;;;;;;;4.57;4.27;;;16.20;99.90;;;;;;10371030;28;20250;-81
2023/08/10 02:51:15;;;;;;;4.67;4.47;;;16.20;99.90;;;;;;10393752;28;20222;-83
2023/08/10 02:56:18;;;;;;;4.50;4.30;;;16.20;99.90;;;;;;10446357;28;20226;-82
2023/08/10 03:01:21;;;;;;;4.53;4.23;;;16.20;99.90;;;;;;10407651;28;20199;-82
2023/08/10 03:06:23;;;;;;;6.93;4.30;;;16.10;99.90;;;;;;10398406;28;20230;-81
2023/08/10 03:11:26;;;;;;;5.43;5.13;;;16.10;99.90;;;;;;10388755;28;20249;-82
2023/08/10 03:16:28;;;;;;;4.73;4.40;;;16.10;99.90;;;;;;10407154;28;20229;-82
2023/08/10 03:21:30;;;;;;;4.43;4.23;;;16.10;99.90;;;;;;10395765;28;20566;-82
2023/08/10 03:26:34;;;;;;;4.50;4.10;;;16.10;99.90;;;;;;10398484;28;20250;-81
2023/08/10 03:31:36;;;;;;;4.93;4.73;;;16.10;99.90;;;;;;10400424;28;20284;-82
2023/08/10 03:36:40;;;;;;;4.10;3.90;;;16.20;99.90;;;;;;10419592;28;20257;-83
2023/08/10 03:41:46;;;;;;;4.00;3.80;;;16.10;99.90;;;;;;10390087;28;20204;-82
2023/08/10 03:46:48;;;;;;;4.30;3.90;;;16.10;99.90;;;;;;10407656;28;20245;-82
2023/08/10 03:51:51;;;;;;;3.90;3.70;;;16.00;99.90;;;;;;10403941;28;20715;-82
2023/08/10 03:56:54;;;;;;;4.00;3.80;;;16.10;99.90;;;;;;10377429;28;20599;-82
2023/08/10 04:01:56;;;;;;;4.30;4.10;;;16.10;99.90;;;;;;10383786;28;20219;-82
2023/08/10 04:06:59;;;;;;;4.70;4.30;;;16.20;99.90;;;;;;10386835;28;20745;-82
2023/08/10 04:12:02;;;;;;;4.40;4.20;;;16.10;99.90;;;;;;10406979;28;20250;-82
2023/08/10 04:17:05;;;;;;;4.60;4.30;;;16.20;99.90;;;;;;10384686;28;20242;-82
2023/08/10 04:22:07;;;;;;;5.00;4.70;;;16.10;99.90;;;;;;10387411;28;20257;-82
2023/08/10 04:27:11;;;;;;;4.50;4.30;;;16.20;99.90;;;;;;10381747;28;20314;-82
2023/08/10 04:32:14;;;;;;;4.10;3.87;;;16.10;99.90;;;;;;10412753;28;20279;-82
2023/08/10 04:37:16;;;;;;;5.07;4.77;;;16.20;99.90;;;;;;10422904;22;20241;-79
2023/08/10 04:42:19;;;;;;;4.03;3.83;;;16.20;99.90;;;;;;10436358;28;20198;-80
2023/08/10 04:47:21;;;;;;;4.80;4.50;;;16.20;99.90;;;;;;10434266;28;20211;-81
2023/08/10 04:52:23;;;;;;;3.93;3.73;;;16.20;99.90;;;;;;10404682;28;20219;-81
2023/08/10 04:57:27;;;;;;;4.60;4.40;;;16.20;99.90;;;;;;10428924;28;20226;-82
2023/08/10 05:02:29;;;;;;;5.00;4.70;;;16.20;99.90;;;;;;10404858;28;20222;-80
2023/08/10 05:07:31;;;;;;;5.27;4.87;;;16.20;99.90;;;;;;10416441;28;20230;-81
2023/08/10 05:12:36;;;;;;;4.90;4.50;;;16.20;99.90;;;;;;10430353;28;20611;-82
2023/08/10 05:17:39;;;;;;;5.10;4.77;;;16.20;99.90;;;;;;10426919;28;20234;-80
2023/08/10 05:22:42;;;;;;;5.50;5.20;;;16.30;99.90;;;;;;10428174;28;20624;-81
2023/08/10 05:27:46;;;;;;;5.80;5.50;;;16.30;99.90;;;;;;10425914;28;20238;-80
2023/08/10 05:32:48;;;;;;;5.30;4.90;;;16.40;99.90;;;;;;10400958;28;20234;-82
2023/08/10 05:37:50;;;;;;;5.10;4.70;;;16.40;99.90;;;;;;10392725;28;20710;-81
2023/08/10 05:42:53;;;;;;;5.67;5.27;;;16.40;99.90;;;;;;10397399;28;20255;-81
2023/08/10 05:47:56;;;;;;;5.73;5.37;;;16.40;99.90;;;;;;10417374;28;20218;-81
2023/08/10 05:52:58;;;;;;;7.00;5.73;;;16.50;99.90;;;;;;10391818;28;20219;-81
2023/08/10 05:58:02;;;;;;;7.10;6.40;;;16.50;99.90;;;;;;10419206;28;20218;-80
2023/08/10 06:03:05;;;;;;;6.73;6.10;;;16.70;99.90;;;;;;10422279;28;20191;-81
2023/08/10 06:08:07;;;;;;;7.13;5.97;;;17.00;99.90;;;;;;10433472;28;20230;-82
2023/08/10 06:13:11;;;;;;;6.10;5.60;;;17.40;99.90;;;;;;10399432;28;20226;-82
2023/08/10 06:18:13;;;;;;;5.90;5.40;;;17.70;99.90;;;;;;10418484;28;20230;-82
2023/08/10 06:23:15;;;;;;;5.90;5.27;;;17.90;99.90;;;;;;10425333;28;20684;-80
2023/08/10 06:28:18;;;;;;;19.37;5.90;;;18.20;99.90;;;;;;10421700;28;20229;-82
2023/08/10 06:33:20;;;;;;;6.07;5.00;;;18.40;99.90;;;;;;10416162;28;20219;-81
2023/08/10 06:38:23;;;;;;;5.70;5.20;;;18.50;99.90;;;;;;10393076;28;20235;-82
2023/08/10 06:43:26;;;;;;;5.20;4.80;;;18.60;99.90;;;;;;10417572;28;20210;-81
2023/08/10 06:48:29;;;;;;;4.90;4.60;;;18.70;99.90;;;;;;10423883;28;20226;-82
2023/08/10 06:53:33;;;;;;;5.20;4.37;;;18.80;99.90;;;;;;10393771;28;20223;-81
2023/08/10 06:58:37;;;;;;;5.37;4.70;;;19.00;99.90;;;;;;10407382;28;20227;-80
2023/08/10 07:03:39;;;;;;;4.17;3.83;;;19.10;99.90;;;;;;10415604;28;20229;-81
2023/08/10 07:08:41;;;;;;;3.93;3.73;;;19.30;99.90;;;;;;10424859;28;20222;-81
2023/08/10 07:13:46;;;;;;;4.13;3.93;;;19.30;99.90;;;;;;10414809;28;20226;-82
2023/08/10 07:18:48;;;;;;;4.83;4.47;;;19.40;99.90;;;;;;10398053;28;20310;-82
2023/08/10 07:23:53;;;;;;;5.57;5.17;;;19.50;99.90;;;;;;10416722;28;20195;-83
2023/08/10 07:28:57;;;;;;;6.00;5.40;;;19.70;99.90;;;;;;10410204;28;20230;-83
2023/08/10 07:33:59;;;;;;;4.43;3.90;;;19.90;99.90;;;;;;10422991;28;20303;-81
2023/08/10 07:39:01;;;;;;;4.03;3.63;;;20.00;99.90;;;;;;10411704;28;20288;-82
2023/08/10 07:44:05;;;;;;;4.60;4.30;;;20.20;99.90;;;;;;10413937;28;20472;-82
2023/08/10 07:49:07;;;;;;;4.17;3.87;;;20.40;99.90;;;;;;10416389;28;20223;-82
2023/08/10 07:54:09;;;;;;;5.30;4.53;;;20.70;99.90;;;;;;10411464;28;20230;-82
2023/08/10 07:59:13;;;;;;;6.17;4.87;;;21.00;99.90;;;;;;10415996;28;20230;-81
2023/08/10 08:04:15;;;;;;;6.50;3.97;;;21.30;99.90;;;;;;10418410;28;20207;-82
2023/08/10 08:09:17;;;;;;;4.17;3.90;;;21.60;99.90;;;;;;10435132;28;20233;-83
2023/08/10 08:14:21;;;;;;;3.73;3.43;;;21.80;99.90;;;;;;10417602;28;20223;-82
2023/08/10 08:19:23;;;;;;;4.40;4.10;;;22.10;99.90;;;;;;10419774;28;20222;-81
2023/08/10 08:24:27;;;;;;;3.63;3.43;;;22.30;99.90;;;;;;10426674;28;20619;-82
2023/08/10 08:29:32;;;;;;;4.00;3.70;;;22.50;99.90;;;;;;10414104;28;20249;-82
2023/08/10 08:34:35;;;;;;;5.40;3.37;;;22.60;99.90;;;;;;10415745;28;20285;-83
2023/08/10 08:39:37;;;;;;;3.40;3.10;;;22.80;99.90;;;;;;10434666;28;20237;-82
2023/08/10 08:44:40;;;;;;;4.20;3.50;;;22.90;99.90;;;;;;10424436;28;20194;-80
2023/08/10 08:49:43;;;;;;;3.67;3.33;;;22.90;99.90;;;;;;10422590;28;20223;-82
2023/08/10 08:54:45;;;;;;;3.37;3.17;;;22.60;99.90;;;;;;10411319;28;20569;-81
2023/08/10 08:59:49;;;;;;;3.83;3.53;;;22.60;99.90;;;;;;10400808;28;20227;-82
2023/08/10 09:04:52;;;;;;;3.73;3.50;;;22.60;99.90;;;;;;10408385;28;20195;-82
2023/08/10 09:09:54;;;;;;;3.57;3.33;;;22.50;99.90;;;;;;10406843;28;20220;-82
2023/08/10 09:15:03;;;;;;;4.17;3.53;;;22.30;99.90;;;;;;10410605;28;20249;-81
2023/08/10 09:20:08;;;;;;;4.13;3.83;;;22.30;99.90;;;;;;10401724;28;20227;-81
2023/08/10 09:25:11;;;;;;;4.40;4.10;;;22.20;99.90;;;;;;10403457;28;20210;-81
2023/08/10 09:30:15;;;;;;;3.97;3.67;;;22.30;99.90;;;;;;10397992;28;20292;-82
2023/08/10 09:35:19;;;;;;;4.23;3.93;;;22.60;99.90;;;;;;10429824;28;20210;-82
2023/08/10 09:40:24;;;;;;;4.20;3.80;;;22.90;99.90;;;;;;10404776;28;20229;-82
2023/08/10 09:45:28;;;;;;;3.60;3.37;;;23.10;99.90;;;;;;10417091;28;20205;-83
2023/08/10 09:50:35;;;;;;;3.43;3.23;;;23.50;99.90;;;;;;10437805;28;20260;-81
2023/08/10 09:55:37;;;;;;;3.63;3.43;;;24.00;99.90;;;;;;10417314;28;20222;-82
2023/08/10 10:00:41;;;;;;;4.00;3.70;;;24.50;99.90;;;;;;10418352;28;20546;-81
2023/08/10 10:05:45;;;;;;;3.63;3.33;;;24.90;99.90;;;;;;10431711;28;20246;-83
2023/08/10 10:10:47;;;;;;;5.83;4.00;;;25.30;99.90;;;;;;10410445;28;20216;-81
2023/08/10 10:15:52;;;;;;;3.80;3.50;;;25.70;99.00;;;;;;10405622;28;20218;-81
2023/08/10 10:20:55;;;;;;;3.77;3.53;;;26.00;99.10;;;;;;10432970;28;20198;-83
2023/08/10 10:26:01;;;;;;;3.80;3.60;;;26.20;97.10;;;;;;10415758;28;20227;-82
2023/08/10 10:31:10;;;;;;;3.33;3.13;;;25.80;97.50;;;;;;10417293;28;20231;-83
2023/08/10 10:36:14;;;;;;;3.10;2.90;;;25.40;97.10;;;;;;10453285;22;20218;-83
2023/08/10 10:41:17;;;;;;;3.77;3.57;;;24.90;98.00;;;;;;10405010;28;20270;-83
2023/08/10 10:46:44;;;;;;;3.73;3.43;;;24.50;97.80;;;;;;10396047;28;20281;-83
2023/08/10 10:51:53;;;;;;;3.90;3.40;;;24.10;97.60;;;;;;10396104;28;20631;-82
2023/08/10 10:56:56;;;;;;;3.73;3.43;;;23.80;98.30;;;;;;10398664;28;20610;-83
2023/08/10 11:02:02;;;;;;;4.13;3.80;;;23.50;98.70;;;;;;10380318;28;20686;-83
2023/08/10 11:07:04;;;;;;;3.43;3.17;;;23.30;98.60;;;;;;10403308;28;20230;-81
2023/08/10 11:12:07;;;;;;;3.93;3.63;;;23.10;99.00;;;;;;10420329;28;20241;-81
2023/08/10 11:17:11;;;;;;;5.33;3.50;;;23.00;98.40;;;;;;10397233;28;20226;-82
2023/08/10 11:22:13;;;;;;;4.73;3.80;;;22.90;99.00;;;;;;10414448;28;20198;-81
2023/08/10 11:27:15;;;;;;;4.83;4.43;;;22.80;99.10;;;;;;10392756;28;20227;-82
2023/08/10 11:32:20;;;;;;;4.47;4.17;;;22.60;99.10;;;;;;10402583;28;20288;-82
2023/08/10 11:37:29;;;;;;;7.20;4.20;;;22.60;98.90;;;;;;10390940;28;20245;-81
2023/08/10 11:42:35;;;;;;;3.80;3.60;;;22.60;98.40;;;;;;10408300;28;20210;-81
2023/08/10 11:47:43;;;;;;;3.60;3.40;;;22.60;98.40;;;;;;10390680;28;20246;-81
2023/08/10 11:52:46;;;;;;;3.93;3.50;;;22.50;98.70;;;;;;10411510;28;20214;-82
2023/08/10 11:57:51;;;;;;;3.90;3.27;;;22.50;98.10;;;;;;10392184;28;20239;-82
2023/08/10 12:03:03;;;;;;;4.40;4.10;;;22.50;98.50;;;;;;10389853;28;20206;-81
2023/08/10 12:08:07;;;;;;;4.77;4.37;;;22.60;97.40;;;;;;10409264;28;20317;-82
2023/08/10 12:13:10;;;;;;;6.83;3.80;;;22.50;98.90;;;;;;10390885;28;20769;-82
2023/08/10 12:18:15;;;;;;;3.70;3.50;;;22.50;97.30;;;;;;10390268;28;20219;-81
2023/08/10 12:23:18;;;;;;;3.87;3.57;;;22.50;97.40;;;;;;10402327;28;20226;-81
2023/08/10 12:28:20;;;;;;;6.73;3.90;;;22.40;98.10;;;;;;10387318;28;20237;-82
2023/08/10 12:33:24;;;;;;;3.97;3.40;;;22.40;97.70;;;;;;10381330;28;20217;-82
2023/08/10 12:38:26;;;;;;;4.90;4.00;;;22.40;96.50;;;;;;10403530;28;20326;-82
2023/08/10 12:43:28;;;;;;;3.90;3.60;;;22.40;96.80;;;;;;10408077;28;20357;-82
2023/08/10 12:48:31;;;;;;;3.77;3.40;;;22.40;97.40;;;;;;10398700;28;20227;-82
2023/08/10 12:53:34;;;;;;;4.77;4.40;;;22.40;95.70;;;;;;10386051;28;20219;-81
2023/08/10 12:58:36;;;;;;;3.80;3.60;;;22.50;96.60;;;;;;10389557;28;20235;-82
2023/08/10 13:03:39;;;;;;;3.53;3.33;;;22.50;96.60;;;;;;10386058;28;20253;-82
2023/08/10 13:08:41;;;;;;;3.57;3.37;;;22.50;96.80;;;;;;10415575;28;20276;-82
2023/08/10 13:13:43;;;;;;;4.47;4.17;;;22.50;96.70;;;;;;10404300;28;20242;-82
2023/08/10 13:18:47;;;;;;;3.70;3.40;;;22.50;95.70;;;;;;10398915;28;20681;-81
2023/08/10 13:23:49;;;;;;;4.10;3.70;;;22.60;95.80;;;;;;10391491;28;20206;-81
2023/08/10 13:28:51;;;;;;;3.60;3.40;;;22.60;94.70;;;;;;10407297;28;20251;-81
2023/08/10 13:33:54;;;;;;;3.87;3.63;;;22.60;95.70;;;;;;10387019;28;20216;-81
2023/08/10 13:38:56;;;;;;;3.93;3.63;;;22.60;96.50;;;;;;10404480;28;20235;-80
2023/08/10 13:43:59;;;;;;;4.03;3.73;;;22.70;94.00;;;;;;10398707;28;20745;-81
2023/08/10 13:49:02;;;;;;;3.03;2.83;;;22.80;94.20;;;;;;10413112;28;20222;-81
2023/08/10 13:54:05;;;;;;;3.70;3.50;;;22.80;94.20;;;;;;10400368;28;20652;-81
2023/08/10 13:59:08;;;;;;;4.10;3.70;;;22.90;95.10;;;;;;10398416;28;20266;-81
2023/08/10 14:04:12;;;;;;;3.50;3.30;;;22.90;92.70;;;;;;10392611;28;20672;-82
2023/08/10 14:09:14;;;;;;;3.43;3.23;;;22.90;94.90;;;;;;10398809;28;20231;-82
2023/08/10 14:14:18;;;;;;;3.70;3.47;;;23.00;94.10;;;;;;10396297;28;20250;-82
2023/08/10 14:19:22;;;;;;;3.53;3.30;;;23.00;93.80;;;;;;10399986;28;20498;-81
2023/08/10 14:24:24;;;;;;;3.60;3.30;;;23.10;94.20;;;;;;10402165;28;20822;-82
2023/08/10 14:29:26;;;;;;;3.10;2.40;;;23.10;94.20;;;;;;10400744;28;20226;-81
2023/08/10 14:34:29;;;;;;;3.20;3.00;;;23.10;94.60;;;;;;10383809;28;20694;-81
2023/08/10 14:39:32;;;;;;;3.53;3.23;;;23.10;93.00;;;;;;10412280;28;20258;-81
2023/08/10 14:44:34;;;;;;;3.20;3.00;;;23.20;93.30;;;;;;10390066;28;20612;-81
2023/08/10 14:49:39;;;;;;;3.13;2.93;;;23.30;92.60;;;;;;10400222;28;20285;-81
2023/08/10 14:54:41;;;;;;;3.20;2.90;;;23.40;92.20;;;;;;10394373;28;20292;-81
2023/08/10 14:59:43;;;;;;;3.27;3.07;;;23.40;92.60;;;;;;10383213;28;20226;-81
2023/08/10 15:04:47;;;;;;;3.50;3.20;;;23.40;92.30;;;;;;10388880;28;20666;-82
2023/08/10 15:09:49;;;;;;;3.17;2.97;;;23.40;92.50;;;;;;10414345;28;20218;-82
2023/08/10 15:14:51;;;;;;;3.00;2.80;;;23.40;92.60;;;;;;10387931;28;20317;-81
2023/08/10 15:19:56;;;;;;;2.70;2.50;;;23.40;92.60;;;;;;10402849;28;20262;-82
2023/08/10 15:24:59;;;;;;;3.27;3.07;;;23.30;92.00;;;;;;10406287;28;20207;-81
2023/08/10 15:30:01;;;;;;;3.30;3.07;;;23.30;91.90;;;;;;10410367;28;20268;-82
2023/08/10 15:35:06;;;;;;;3.30;3.10;;;23.40;91.50;;;;;;10404045;28;20305;-82
2023/08/10 15:40:09;;;;;;;3.33;3.13;;;23.40;91.30;;;;;;10415096;28;20238;-81
2023/08/10 15:45:13;;;;;;;3.77;3.17;;;23.40;92.10;;;;;;10385703;28;20285;-81
2023/08/10 15:50:17;;;;;;;3.50;3.13;;;23.40;92.00;;;;;;10400234;28;20227;-80
2023/08/10 15:55:19;;;;;;;3.33;3.13;;;23.30;92.00;;;;;;10396976;28;20243;-81
2023/08/10 16:00:21;;;;;;;2.93;2.73;;;23.30;92.40;;;;;;10376281;28;20732;-79
2023/08/10 16:05:24;;;;;;;3.50;2.77;;;23.30;92.30;;;;;;10376355;28;20211;-80
2023/08/10 16:10:26;;;;;;;3.17;2.97;;;23.30;91.30;;;;;;10404405;28;20772;-81
2023/08/10 16:15:29;;;;;;;3.17;2.93;;;23.30;91.40;;;;;;10417435;28;20301;-81
2023/08/10 16:20:32;;;;;;;3.33;3.10;;;23.30;91.20;;;;;;10411362;28;20856;-80
2023/08/10 16:25:34;;;;;;;3.33;3.13;;;23.30;91.20;;;;;;10408988;28;20210;-80
2023/08/10 16:30:36;;;;;;;3.40;3.20;;;23.30;92.60;;;;;;10387751;28;20230;-80
2023/08/10 16:35:40;;;;;;;2.70;2.50;;;23.30;91.60;;;;;;10422091;28;20231;-81
2023/08/10 16:40:42;;;;;;;3.10;2.90;;;23.20;92.10;;;;;;10516259;22;20227;-78
2023/08/10 16:45:44;;;;;;;3.43;3.20;;;23.20;92.50;;;;;;10495494;28;20207;-78
2023/08/10 16:50:48;;;;;;;3.30;3.10;;;23.10;93.20;;;;;;10464184;28;20566;-78
2023/08/10 16:55:50;;;;;;;3.10;2.90;;;23.10;92.50;;;;;;10497937;28;20220;-78
2023/08/10 17:00:53;;;;;;;3.40;3.10;;;23.10;91.90;;;;;;10497697;28;20239;-78
2023/08/10 17:05:56;;;;;;;3.50;3.20;;;23.00;90.90;;;;;;10528106;28;20192;-77
2023/08/10 17:10:58;;;;;;;3.13;3.03;;;23.00;91.90;;;;;;10535806;28;20230;-78
2023/08/10 17:16:00;;;;;;;3.07;2.87;;;23.00;90.90;;;;;;10541915;28;20263;-77
2023/08/10 17:21:04;;;;;;;3.20;2.90;;;23.10;90.90;;;;;;10491762;28;20223;-78
2023/08/10 17:26:06;;;;;;;3.30;3.10;;;23.00;92.10;;;;;;10515483;28;20672;-78
2023/08/10 17:31:09;;;;;;;3.20;3.00;;;23.00;90.20;;;;;;10527919;28;20230;-79
2023/08/10 17:36:12;;;;;;;4.07;3.27;;;22.90;91.80;;;;;;10512261;28;20312;-78
2023/08/10 17:41:15;;;;;;;2.90;2.70;;;22.90;90.30;;;;;;10510918;28;20217;-78
2023/08/10 17:46:17;;;;;;;2.33;2.23;;;22.90;90.80;;;;;;10512527;28;20193;-78
2023/08/10 17:51:20;;;;;;;3.13;2.93;;;22.80;92.80;;;;;;10526914;28;20223;-78
2023/08/10 17:56:22;;;;;;;2.80;2.60;;;22.70;94.60;;;;;;10512793;28;20225;-78
2023/08/10 18:01:24;;;;;;;6.63;3.27;;;22.60;94.40;;;;;;10538317;28;20316;-79
2023/08/10 18:06:28;;;;;;;3.20;3.00;;;22.40;94.90;;;;;;10542741;28;20201;-79
2023/08/10 18:11:30;;;;;;;2.83;2.63;;;22.30;95.70;;;;;;10496700;28;20577;-79
2023/08/10 18:16:32;;;;;;;3.40;3.20;;;22.20;95.20;;;;;;10556591;28;20224;-79
2023/08/10 18:21:36;;;;;;;4.80;2.77;;;22.10;94.80;;;;;;10515398;28;20245;-78
2023/08/10 18:26:40;;;;;;;3.33;3.13;;;22.10;94.70;;;;;;10508306;28;20208;-78
2023/08/10 18:31:42;;;;;;;3.17;2.97;;;22.10;94.20;;;;;;10509672;28;20268;-78
2023/08/10 18:36:45;;;;;;;3.77;3.47;;;22.10;93.40;;;;;;10515811;28;20279;-79
2023/08/10 18:41:48;;;;;;;4.60;3.30;;;22.00;93.70;;;;;;10510815;28;20203;-79
2023/08/10 18:46:50;;;;;;;3.73;3.40;;;22.00;93.40;;;;;;10533667;28;20250;-80
2023/08/10 18:51:53;;;;;;;3.20;3.00;;;21.90;94.00;;;;;;10511048;28;20747;-78
2023/08/10 18:56:55;;;;;;;3.37;3.10;;;21.80;94.20;;;;;;10494288;28;20213;-79
2023/08/10 19:01:58;;;;;;;3.00;2.80;;;21.70;94.20;;;;;;10536463;28;20204;-79
2023/08/10 19:07:01;;;;;;;2.93;2.73;;;21.50;94.00;;;;;;10520198;28;20641;-78
2023/08/10 19:12:04;;;;;;;3.30;3.07;;;21.50;94.30;;;;;;10509565;28;20203;-77
2023/08/10 19:17:07;;;;;;;2.97;2.73;;;21.40;93.90;;;;;;10500990;28;20227;-79
2023/08/10 19:22:11;;;;;;;3.03;2.83;;;21.20;94.20;;;;;;10510211;28;20196;-78
2023/08/10 19:27:13;;;;;;;3.47;3.27;;;21.10;94.50;;;;;;10488542;28;20754;-79
2023/08/10 19:32:15;;;;;;;3.73;3.43;;;21.00;94.60;;;;;;10509553;28;20220;-79
2023/08/10 19:37:18;;;;;;;3.53;3.33;;;21.00;94.90;;;;;;10515746;28;20233;-78
2023/08/10 19:42:21;;;;;;;3.43;3.23;;;20.90;95.00;;;;;;10503944;28;20208;-78
2023/08/10 19:47:23;;;;;;;5.00;3.20;;;20.90;95.10;;;;;;10509192;28;20225;-78
2023/08/10 19:52:26;;;;;;;3.43;3.23;;;20.80;95.10;;;;;;10517449;28;20570;-79
2023/08/10 19:57:29;;;;;;;3.10;2.90;;;20.70;95.40;;;;;;10497663;28;20707;-78
2023/08/10 20:02:31;;;;;;;3.33;2.93;;;20.70;95.30;;;;;;10506797;28;20428;-78
2023/08/10 20:07:34;;;;;;;4.90;3.00;;;20.70;95.10;;;;;;10498205;28;20734;-79
2023/08/10 20:12:37;;;;;;;3.30;3.00;;;20.60;95.00;;;;;;10517254;28;20258;-78
2023/08/10 20:17:39;;;;;;;3.80;3.50;;;20.60;95.20;;;;;;10515314;28;20685;-79
2023/08/10 20:22:43;;;;;;;3.67;3.47;;;20.50;95.20;;;;;;10481697;28;20202;-78
2023/08/10 20:27:46;;;;;;;3.70;3.40;;;20.50;95.60;;;;;;10512990;28;20224;-78
2023/08/10 20:32:48;;;;;;;4.40;3.00;;;20.40;95.80;;;;;;10521429;28;20224;-78
2023/08/10 20:37:51;;;;;;;3.83;3.50;;;20.40;95.60;;;;;;10520215;28;20323;-78
2023/08/10 20:42:54;;;;;;;4.23;3.57;;;20.30;95.80;;;;;;10541067;28;20204;-78
2023/08/10 20:47:57;;;;;;;3.50;3.20;;;20.30;95.40;;;;;;10537910;28;20216;-78
2023/08/10 20:53:01;;;;;;;4.07;3.60;;;20.20;95.70;;;;;;10518602;28;20244;-78
2023/08/10 20:58:03;;;;;;;3.60;3.40;;;20.20;95.60;;;;;;10506102;28;20684;-78
2023/08/10 21:03:06;;;;;;;4.00;3.70;;;20.10;95.70;;;;;;10534792;28;20292;-78
2023/08/10 21:08:10;;;;;;;3.17;2.97;;;20.10;95.70;;;;;;10514935;28;20229;-78
2023/08/10 21:13:12;;;;;;;3.80;3.50;;;20.00;96.10;;;;;;10521371;28;20758;-78
2023/08/10 21:18:14;;;;;;;4.00;3.70;;;20.00;95.90;;;;;;10502696;28;20241;-78
2023/08/10 21:23:18;;;;;;;4.00;3.70;;;19.90;95.90;;;;;;10532318;28;20271;-78
2023/08/10 21:28:20;;;;;;;3.77;3.47;;;19.90;96.10;;;;;;10527167;28;20213;-78
2023/08/10 21:33:22;;;;;;;4.37;3.97;;;19.80;96.30;;;;;;10530830;28;20255;-77
2023/08/10 21:38:26;;;;;;;3.93;3.63;;;19.80;96.40;;;;;;10513174;28;20457;-78
2023/08/10 21:43:28;;;;;;;4.33;3.93;;;19.80;96.80;;;;;;10526486;28;20209;-78
2023/08/10 21:48:30;;;;;;;3.27;3.07;;;19.70;97.00;;;;;;10486403;28;20221;-78
2023/08/10 21:53:34;;;;;;;3.40;3.20;;;19.70;97.10;;;;;;10511508;28;20221;-78
2023/08/10 21:58:36;;;;;;;3.70;3.40;;;19.60;97.10;;;;;;10531153;28;20233;-78
2023/08/10 22:03:41;;;;;;;4.33;3.37;;;19.60;97.10;;;;;;10526786;28;20621;-78
2023/08/10 22:08:45;;;;;;;5.30;3.97;;;19.60;97.60;;;;;;10526010;28;20237;-78
2023/08/10 22:13:47;;;;;;;4.17;3.50;;;19.60;97.40;;;;;;10512290;28;20217;-77
2023/08/10 22:18:49;;;;;;;3.90;3.67;;;19.50;97.70;;;;;;10509582;28;20247;-78
2023/08/10 22:23:53;;;;;;;3.77;3.47;;;19.50;97.80;;;;;;10514029;28;20280;-77
2023/08/10 22:28:55;;;;;;;4.10;3.50;;;19.50;98.00;;;;;;10521397;28;20282;-78
2023/08/10 22:33:57;;;;;;;3.37;3.10;;;19.40;97.60;;;;;;10522341;28;20282;-78
2023/08/10 22:39:00;;;;;;;3.87;3.57;;;19.40;97.80;;;;;;10501572;22;20296;-81
2023/08/10 22:44:03;;;;;;;4.57;4.27;;;19.30;97.70;;;;;;10407152;28;20213;-82
2023/08/10 22:49:05;;;;;;;4.40;4.00;;;19.30;97.80;;;;;;10394152;28;20242;-82
2023/08/10 22:54:08;;;;;;;4.00;3.70;;;19.30;98.10;;;;;;10386698;28;20259;-82
2023/08/10 22:59:10;;;;;;;4.40;4.10;;;19.20;98.40;;;;;;10392847;28;20271;-81
2023/08/10 23:04:13;;;;;;;3.83;3.53;;;19.20;98.50;;;;;;10381211;28;20204;-82
2023/08/10 23:09:16;;;;;;;3.57;3.37;;;19.10;98.60;;;;;;10407240;28;20230;-81
2023/08/10 23:14:18;;;;;;;3.70;3.50;;;19.10;98.60;;;;;;10410700;28;20280;-81
2023/08/10 23:19:22;;;;;;;4.90;3.90;;;19.10;98.70;;;;;;10389210;28;20219;-81
2023/08/10 23:24:25;;;;;;;3.90;3.70;;;19.10;98.60;;;;;;10385763;28;20238;-81
2023/08/10 23:29:27;;;;;;;4.80;4.30;;;19.00;98.60;;;;;;10401742;28;20230;-81
2023/08/10 23:34:29;;;;;;;3.70;3.40;;;18.90;98.90;;;;;;10394402;28;20222;-81
2023/08/10 23:39:33;;;;;;;4.67;4.30;;;18.90;98.50;;;;;;10406451;28;20322;-81
2023/08/10 23:44:36;;;;;;;4.13;3.77;;;18.90;98.70;;;;;;10411577;28;20208;-82
2023/08/10 23:49:38;;;;;;;3.97;3.77;;;18.90;99.00;;;;;;10395258;28;20240;-82
2023/08/10 23:54:43;;;;;;;3.83;3.50;;;18.90;99.10;;;;;;10386869;28;20824;-82
2023/08/10 23:59:45;;;;;;;4.73;4.33;;;18.80;99.30;;;;;;10391456;28;20218;-82
